createdAt,value
2023-03-26T00:02:24.198Z,16.10
2023-03-26T00:04:53.348Z,16.30
2023-03-26T00:07:22.744Z,16.30
2023-03-26T00:09:50.736Z,14.70
2023-03-26T00:12:20.012Z,16.00
2023-03-26T00:14:52.780Z,16.00
2023-03-26T00:17:21.357Z,16.40
2023-03-26T00:19:53.698Z,14.30
2023-03-26T00:22:23.715Z,16.80
2023-03-26T00:24:52.238Z,16.70
2023-03-26T00:27:20.640Z,15.90
2023-03-26T00:29:49.792Z,17.40
2023-03-26T00:32:17.841Z,17.20
2023-03-26T00:34:46.339Z,18.50
2023-03-26T00:37:15.205Z,16.90
2023-03-26T00:39:49.290Z,17.00
2023-03-26T00:42:17.382Z,16.90
2023-03-26T00:44:45.738Z,18.50
2023-03-26T00:47:14.608Z,16.70
2023-03-26T00:49:42.794Z,18.50
2023-03-26T00:52:10.875Z,18.30
2023-03-26T00:54:39.048Z,18.80
2023-03-26T00:57:16.365Z,18.20
2023-03-26T00:59:51.407Z,19.20
2023-03-26T01:02:20.989Z,20.20
2023-03-26T01:04:56.755Z,18.00
2023-03-26T01:07:29.013Z,19.10
2023-03-26T01:09:59.736Z,19.20
2023-03-26T01:12:32.081Z,17.80
2023-03-26T01:15:01.034Z,18.90
2023-03-26T01:17:34.408Z,20.00
2023-03-26T01:20:15.831Z,19.70
2023-03-26T01:22:49.620Z,21.50
2023-03-26T01:25:18.167Z,19.70
2023-03-26T01:27:50.629Z,19.30
2023-03-26T01:30:27.683Z,21.20
2023-03-26T01:33:14.531Z,22.20
2023-03-26T01:36:02.600Z,21.10
2023-03-26T01:38:52.340Z,21.50
2023-03-26T01:41:24.744Z,23.80
2023-03-26T01:44:16.966Z,22.40
2023-03-26T01:46:45.850Z,22.10
2023-03-26T01:49:13.916Z,26.00
2023-03-26T01:51:42.247Z,22.80
2023-03-26T01:54:31.240Z,26.00
2023-03-26T01:57:10.773Z,26.70
2023-03-26T01:59:45.891Z,22.90
2023-03-26T02:02:15.731Z,24.30
2023-03-26T02:05:10.994Z,25.80
2023-03-26T02:08:12.454Z,22.80
2023-03-26T02:10:44.297Z,24.80
2023-03-26T02:13:16.176Z,25.30
2023-03-26T02:16:01.200Z,22.90
2023-03-26T02:18:39.016Z,23.50
2023-03-26T02:21:15.578Z,23.50
2023-03-26T02:23:47.269Z,21.80
2023-03-26T02:26:16.641Z,21.70
2023-03-26T02:28:58.508Z,24.60
2023-03-26T02:31:31.221Z,21.70
2023-03-26T02:33:59.522Z,23.00
2023-03-26T02:36:29.842Z,23.00
2023-03-26T02:39:02.280Z,23.00
2023-03-26T02:41:35.548Z,24.90
2023-03-26T02:44:07.553Z,14.00
2023-03-26T02:46:55.871Z,12.30
2023-03-26T02:49:43.730Z,8.90
2023-03-26T02:52:17.164Z,7.30
2023-03-26T02:54:47.320Z,6.10
2023-03-26T02:57:20.488Z,4.40
2023-03-26T03:00:14.188Z,4.40
2023-03-26T03:03:04.356Z,4.70
2023-03-26T03:05:32.946Z,3.30
2023-03-26T03:08:29.338Z,3.10
2023-03-26T03:11:18.806Z,2.90
2023-03-26T03:13:48.098Z,2.60
2023-03-26T03:16:35.523Z,2.70
2023-03-26T03:19:07.321Z,3.40
2023-03-26T03:21:39.573Z,2.50
2023-03-26T03:24:09.634Z,2.80
2023-03-26T03:26:42.438Z,3.10
2023-03-26T03:29:24.043Z,2.60
2023-03-26T03:31:52.911Z,3.10
2023-03-26T03:34:42.532Z,3.60
2023-03-26T03:37:11.599Z,2.70
2023-03-26T03:39:45.241Z,3.10
2023-03-26T03:42:14.545Z,3.40
2023-03-26T03:44:44.429Z,2.60
2023-03-26T03:47:27.623Z,3.90
2023-03-26T03:49:57.234Z,2.80
2023-03-26T03:52:25.691Z,2.30
2023-03-26T03:54:56.547Z,3.10
2023-03-26T03:57:46.244Z,2.40
2023-03-26T04:00:20.225Z,2.40
2023-03-26T04:02:54.520Z,2.30
2023-03-26T04:05:23.665Z,2.40
2023-03-26T04:07:53.677Z,2.20
2023-03-26T04:10:24.674Z,3.00
2023-03-26T04:13:12.649Z,2.00
2023-03-26T04:15:56.692Z,2.30
2023-03-26T04:18:27.874Z,2.30
2023-03-26T04:21:02.482Z,2.30
2023-03-26T04:23:31.748Z,2.10
2023-03-26T04:26:10.556Z,2.60
2023-03-26T04:29:00.964Z,2.00
2023-03-26T04:34:32.060Z,2.80
2023-03-26T04:37:09.626Z,2.40
2023-03-26T04:39:44.887Z,2.60
2023-03-26T04:42:33.958Z,2.90
2023-03-26T04:45:22.894Z,2.70
2023-03-26T04:47:58.332Z,2.70
2023-03-26T04:50:28.292Z,2.70
2023-03-26T04:55:59.831Z,2.50
2023-03-26T04:58:50.422Z,2.50
2023-03-26T05:01:18.585Z,2.90
2023-03-26T05:03:48.682Z,3.10
2023-03-26T05:06:17.863Z,2.60
2023-03-26T05:08:49.228Z,2.20
2023-03-26T05:11:37.519Z,2.20
2023-03-26T05:14:05.744Z,2.60
2023-03-26T05:19:09.273Z,2.70
2023-03-26T05:21:39.183Z,2.00
2023-03-26T05:24:10.731Z,2.20
2023-03-26T05:26:39.084Z,2.70
2023-03-26T05:29:08.101Z,2.20
2023-03-26T05:31:45.820Z,2.50
2023-03-26T05:34:14.853Z,2.30
2023-03-26T05:36:44.032Z,2.60
2023-03-26T05:42:31.652Z,2.20
2023-03-26T05:45:24.825Z,2.50
2023-03-26T05:47:56.008Z,2.80
2023-03-26T05:50:25.787Z,3.20
2023-03-26T05:52:59.685Z,2.40
2023-03-26T05:56:07.782Z,2.30
2023-03-26T05:58:56.217Z,3.10
2023-03-26T06:01:25.858Z,2.60
2023-03-26T06:04:13.877Z,2.10
2023-03-26T06:06:52.870Z,2.50
2023-03-26T06:09:23.236Z,2.00
2023-03-26T06:11:51.540Z,2.10
2023-03-26T06:14:25.520Z,2.70
2023-03-26T06:17:18.074Z,1.90
2023-03-26T06:20:13.581Z,2.20
2023-03-26T06:22:45.411Z,2.40
2023-03-26T06:25:30.862Z,2.00
2023-03-26T06:28:21.205Z,2.20
2023-03-26T06:31:09.303Z,2.50
2023-03-26T06:33:57.017Z,2.40
2023-03-26T06:36:26.634Z,2.90
2023-03-26T06:38:54.705Z,2.40
2023-03-26T06:41:23.649Z,2.40
2023-03-26T06:44:21.896Z,1.90
2023-03-26T06:46:55.500Z,2.40
2023-03-26T06:49:46.807Z,1.80
2023-03-26T06:52:37.768Z,2.10
2023-03-26T06:55:25.043Z,1.90
2023-03-26T06:58:06.126Z,1.90
2023-03-26T07:00:58.024Z,1.80
2023-03-26T07:03:46.423Z,1.60
2023-03-26T07:06:33.391Z,1.70
2023-03-26T07:09:20.027Z,1.60
2023-03-26T07:12:14.912Z,1.50
2023-03-26T07:15:21.928Z,1.70
2023-03-26T07:18:10.231Z,1.90
2023-03-26T07:20:40.627Z,1.50
2023-03-26T07:23:10.685Z,1.60
2023-03-26T07:25:54.638Z,1.40
2023-03-26T07:29:31.097Z,1.40
2023-03-26T07:32:18.501Z,1.40
2023-03-26T07:35:28.511Z,1.60
2023-03-26T07:39:28.943Z,1.50
2023-03-26T07:42:22.596Z,1.80
2023-03-26T07:45:25.619Z,1.30
2023-03-26T07:48:18.058Z,1.80
2023-03-26T07:51:07.941Z,1.40
2023-03-26T07:54:01.144Z,1.50
2023-03-26T07:56:58.663Z,1.20
2023-03-26T07:59:45.687Z,1.40
2023-03-26T08:02:38.808Z,1.40
2023-03-26T08:05:30.898Z,1.50
2023-03-26T08:08:19.808Z,1.50
2023-03-26T08:11:28.724Z,1.70
2023-03-26T08:14:12.058Z,2.00
2023-03-26T08:16:48.932Z,1.90
2023-03-26T08:19:40.876Z,2.40
2023-03-26T08:22:23.761Z,2.00
2023-03-26T08:25:12.048Z,2.60
2023-03-26T08:28:04.310Z,2.20
2023-03-26T08:30:34.549Z,2.10
2023-03-26T08:33:11.458Z,2.20
2023-03-26T08:35:42.570Z,2.30
2023-03-26T08:38:11.846Z,2.50
2023-03-26T08:41:06.874Z,2.10
2023-03-26T08:44:04.068Z,2.20
2023-03-26T08:46:50.837Z,2.50
2023-03-26T08:49:31.959Z,2.10
2023-03-26T08:55:23.172Z,2.20
2023-03-26T08:58:10.178Z,2.10
2023-03-26T09:01:01.990Z,2.20
2023-03-26T09:03:58.470Z,2.20
2023-03-26T09:06:46.280Z,2.50
2023-03-26T09:09:18.922Z,2.40
2023-03-26T09:12:06.588Z,2.00
2023-03-26T09:14:35.483Z,2.30
2023-03-26T09:17:23.186Z,2.10
2023-03-26T09:20:03.958Z,2.30
2023-03-26T09:22:51.186Z,2.20
2023-03-26T09:25:54.815Z,2.60
2023-03-26T09:28:57.108Z,2.80
2023-03-26T09:32:02.538Z,2.90
2023-03-26T09:34:37.157Z,3.00
2023-03-26T09:37:33.813Z,2.90
2023-03-26T09:40:57.358Z,2.70
2023-03-26T09:43:33.703Z,2.90
2023-03-26T09:46:19.014Z,3.60
2023-03-26T09:49:09.137Z,3.60
2023-03-26T09:51:52.798Z,3.80
2023-03-26T09:54:37.043Z,3.10
2023-03-26T09:57:27.170Z,4.20
2023-03-26T10:00:14.771Z,4.60
2023-03-26T10:03:23.179Z,4.20
2023-03-26T10:06:31.093Z,4.20
2023-03-26T10:09:01.965Z,4.80
2023-03-26T10:11:38.293Z,4.60
2023-03-26T10:14:29.345Z,4.50
2023-03-26T10:17:42.362Z,5.10
2023-03-26T10:20:28.859Z,5.50
2023-03-26T10:23:23.628Z,6.10
2023-03-26T10:26:22.135Z,5.90
2023-03-26T10:28:53.273Z,6.70
2023-03-26T10:31:34.381Z,6.90
2023-03-26T10:34:03.439Z,7.00
2023-03-26T10:36:35.262Z,7.20
2023-03-26T10:39:43.459Z,7.00
2023-03-26T10:42:11.759Z,9.60
2023-03-26T10:45:13.710Z,10.00
2023-03-26T10:47:59.003Z,8.30
2023-03-26T10:50:56.174Z,9.10
2023-03-26T10:53:27.312Z,8.60
2023-03-26T10:58:48.769Z,7.50
2023-03-26T11:01:43.215Z,7.90
2023-03-26T11:04:16.404Z,6.10
2023-03-26T11:07:05.037Z,6.40
2023-03-26T11:09:53.264Z,7.90
2023-03-26T11:12:55.545Z,8.10
2023-03-26T11:16:03.325Z,6.70
2023-03-26T11:18:46.992Z,7.40
2023-03-26T11:21:24.278Z,7.40
2023-03-26T11:24:34.429Z,7.90
2023-03-26T11:27:15.277Z,7.10
2023-03-26T11:30:02.798Z,8.00
2023-03-26T11:32:40.062Z,7.00
2023-03-26T11:35:40.640Z,6.00
2023-03-26T11:38:37.602Z,6.10
2023-03-26T11:41:13.114Z,6.40
2023-03-26T11:43:59.331Z,7.20
2023-03-26T11:46:33.241Z,6.80
2023-03-26T11:51:36.222Z,6.30
2023-03-26T11:54:06.047Z,7.10
2023-03-26T11:57:04.504Z,6.70
2023-03-26T12:00:18.121Z,7.80
2023-03-26T12:02:57.767Z,5.90
2023-03-26T12:05:31.609Z,5.80
2023-03-26T12:08:03.441Z,5.70
2023-03-26T12:10:38.921Z,4.50
2023-03-26T12:13:29.213Z,5.80
2023-03-26T12:16:27.619Z,5.40
2023-03-26T12:19:06.370Z,6.10
2023-03-26T12:22:05.162Z,5.80
2023-03-26T12:24:35.241Z,5.90
2023-03-26T12:27:25.589Z,5.60
2023-03-26T12:30:19.928Z,5.20
2023-03-26T12:33:04.278Z,5.20
2023-03-26T12:35:34.867Z,5.20
2023-03-26T12:38:22.733Z,4.60
2023-03-26T12:41:08.837Z,4.00
2023-03-26T12:44:54.711Z,4.00
2023-03-26T12:47:57.131Z,5.80
2023-03-26T12:49:38.017Z,3.60
2023-03-26T12:52:38.237Z,4.20
2023-03-26T12:55:15.920Z,4.40
2023-03-26T12:58:13.801Z,3.80
2023-03-26T13:01:15.849Z,4.30
2023-03-26T13:03:44.292Z,4.70
2023-03-26T13:06:25.057Z,4.60
2023-03-26T13:09:05.059Z,4.30
2023-03-26T13:11:45.777Z,4.20
2023-03-26T13:14:35.516Z,4.00
2023-03-26T13:17:18.004Z,4.20
2023-03-26T13:20:06.857Z,3.00
2023-03-26T13:23:23.727Z,3.40
2023-03-26T13:26:10.592Z,3.60
2023-03-26T13:29:31.057Z,3.20
2023-03-26T13:32:06.026Z,3.40
2023-03-26T13:35:02.262Z,3.20
2023-03-26T13:37:54.126Z,3.20
2023-03-26T13:40:49.936Z,3.30
2023-03-26T13:43:38.187Z,3.50
2023-03-26T13:46:25.067Z,3.10
2023-03-26T13:48:59.428Z,3.10
2023-03-26T13:51:33.076Z,3.10
2023-03-26T13:54:17.744Z,3.70
2023-03-26T13:56:49.393Z,3.00
2023-03-26T13:59:27.171Z,3.10
2023-03-26T14:02:02.297Z,3.40
2023-03-26T14:04:34.122Z,3.40
2023-03-26T14:07:06.487Z,3.00
2023-03-26T14:10:03.236Z,2.80
2023-03-26T14:12:44.687Z,2.20
2023-03-26T14:15:27.140Z,2.30
2023-03-26T14:18:00.492Z,2.90
2023-03-26T14:20:50.301Z,2.10
2023-03-26T14:23:28.806Z,1.90
2023-03-26T14:26:16.018Z,1.90
2023-03-26T14:29:13.677Z,1.80
2023-03-26T14:31:46.461Z,1.70
2023-03-26T14:34:33.326Z,2.40
2023-03-26T14:37:44.987Z,1.80
2023-03-26T14:40:26.107Z,2.20
2023-03-26T14:43:06.110Z,2.10
2023-03-26T14:46:12.849Z,2.20
2023-03-26T14:48:59.164Z,2.80
2023-03-26T14:51:59.629Z,4.00
2023-03-26T14:54:33.526Z,2.80
2023-03-26T14:57:39.353Z,2.60
2023-03-26T15:00:20.207Z,3.20
2023-03-26T15:03:09.837Z,3.10
2023-03-26T15:05:41.711Z,3.10
2023-03-26T15:08:24.278Z,3.30
2023-03-26T15:11:17.442Z,4.90
2023-03-26T15:14:11.517Z,3.30
2023-03-26T15:17:10.870Z,4.80
2023-03-26T15:20:17.123Z,5.10
2023-03-26T15:23:27.229Z,3.90
2023-03-26T15:26:09.889Z,7.80
2023-03-26T15:28:41.117Z,3.50
2023-03-26T15:31:24.637Z,4.60
2023-03-26T15:34:20.218Z,4.50
2023-03-26T15:37:12.402Z,5.90
2023-03-26T15:39:59.165Z,5.10
2023-03-26T15:42:37.896Z,4.80
2023-03-26T15:45:26.202Z,4.40
2023-03-26T15:48:01.526Z,4.70
2023-03-26T15:51:02.632Z,5.50
2023-03-26T15:53:35.525Z,4.60
2023-03-26T15:56:25.979Z,4.70
2023-03-26T15:59:16.568Z,3.90
2023-03-26T16:01:47.573Z,4.70
2023-03-26T16:04:37.769Z,4.40
2023-03-26T16:07:47.957Z,4.10
2023-03-26T16:10:44.779Z,5.80
2023-03-26T16:13:36.827Z,8.50
2023-03-26T16:16:06.958Z,13.30
2023-03-26T16:18:42.085Z,10.40
2023-03-26T16:21:32.790Z,11.10
2023-03-26T16:26:45.600Z,7.00
2023-03-26T16:29:14.646Z,7.60
2023-03-26T16:32:11.040Z,7.50
2023-03-26T16:34:53.275Z,6.30
2023-03-26T16:37:50.688Z,6.10
2023-03-26T16:40:22.684Z,6.10
2023-03-26T16:43:05.959Z,5.60
2023-03-26T16:45:44.072Z,5.60
2023-03-26T16:51:45.973Z,4.80
2023-03-26T16:54:20.093Z,5.00
2023-03-26T16:57:17.244Z,4.80
2023-03-26T17:00:06.363Z,4.40
2023-03-26T17:02:50.310Z,4.70
2023-03-26T17:05:35.942Z,5.00
2023-03-26T17:08:12.358Z,4.80
2023-03-26T17:10:53.916Z,4.60
2023-03-26T17:13:37.031Z,5.70
2023-03-26T17:16:21.144Z,5.80
2023-03-26T17:19:18.502Z,14.80
2023-03-26T17:22:14.849Z,145.60
2023-03-26T17:24:48.974Z,254.30
2023-03-26T17:27:51.962Z,313.20
2023-03-26T17:30:42.432Z,322.90
2023-03-26T17:33:29.602Z,294.00
2023-03-26T17:36:13.089Z,113.30
2023-03-26T17:38:46.729Z,42.70
2023-03-26T17:41:35.569Z,29.80
2023-03-26T17:44:23.203Z,25.30
2023-03-26T17:46:51.371Z,11.90
2023-03-26T17:49:21.497Z,7.30
2023-03-26T17:52:04.316Z,6.30
2023-03-26T17:54:36.485Z,9.40
2023-03-26T17:57:11.140Z,6.80
2023-03-26T17:59:40.997Z,7.00
2023-03-26T18:02:16.471Z,10.70
2023-03-26T18:04:47.871Z,8.20
2023-03-26T18:08:02.099Z,11.30
2023-03-26T18:10:56.883Z,11.00
2023-03-26T18:13:37.349Z,9.30
2023-03-26T18:16:17.375Z,8.40
2023-03-26T18:18:57.076Z,9.70
2023-03-26T18:21:46.450Z,8.60
2023-03-26T18:24:19.528Z,9.10
2023-03-26T18:27:00.225Z,8.90
2023-03-26T18:29:33.122Z,6.90
2023-03-26T18:32:10.450Z,6.70
2023-03-26T18:34:49.530Z,8.40
2023-03-26T18:37:23.514Z,6.80
2023-03-26T18:40:21.634Z,8.00
2023-03-26T18:42:49.774Z,9.30
2023-03-26T18:45:37.305Z,8.00
2023-03-26T18:48:10.652Z,8.40
2023-03-26T18:50:41.103Z,9.50
2023-03-26T18:53:21.119Z,7.90
2023-03-26T18:55:50.747Z,10.50
2023-03-26T18:58:30.469Z,10.80
2023-03-26T19:01:19.982Z,9.60
2023-03-26T19:03:53.100Z,8.80
2023-03-26T19:06:23.466Z,9.00
2023-03-26T19:08:52.444Z,10.10
2023-03-26T19:11:22.508Z,8.20
2023-03-26T19:14:03.636Z,11.10
2023-03-26T19:16:33.951Z,11.40
2023-03-26T19:19:05.504Z,10.50
2023-03-26T19:21:34.720Z,10.00
2023-03-26T19:24:16.423Z,12.40
2023-03-26T19:26:44.622Z,9.00
2023-03-26T19:29:29.971Z,7.70
2023-03-26T19:32:05.658Z,11.50
2023-03-26T19:34:40.271Z,11.30
2023-03-26T19:37:18.277Z,8.00
2023-03-26T19:39:49.255Z,8.30
2023-03-26T19:42:42.889Z,8.60
2023-03-26T19:45:21.785Z,8.40
2023-03-26T19:48:00.533Z,9.00
2023-03-26T19:50:43.649Z,9.40
2023-03-26T19:53:18.680Z,9.50
2023-03-26T19:55:54.320Z,9.30
2023-03-26T19:58:22.317Z,9.90
2023-03-26T20:00:51.839Z,9.50
2023-03-26T20:03:43.042Z,9.20
2023-03-26T20:06:16.649Z,9.70
2023-03-26T20:08:46.722Z,9.50
2023-03-26T20:11:17.789Z,10.40
2023-03-26T20:13:46.597Z,14.90
2023-03-26T20:16:24.658Z,14.20
2023-03-26T20:18:53.822Z,12.90
2023-03-26T20:21:29.552Z,13.30
2023-03-26T20:23:57.587Z,13.30
2023-03-26T20:26:25.819Z,12.00
2023-03-26T20:28:54.733Z,13.90
2023-03-26T20:31:25.352Z,11.60
2023-03-26T20:33:54.390Z,11.00
2023-03-26T20:36:33.368Z,12.50
2023-03-26T20:39:06.162Z,11.00
2023-03-26T20:41:41.660Z,12.50
2023-03-26T20:44:15.314Z,11.30
2023-03-26T20:46:44.030Z,11.10
2023-03-26T20:49:12.228Z,10.70
2023-03-26T20:51:41.909Z,10.90
2023-03-26T20:54:30.374Z,9.90
2023-03-26T20:56:58.437Z,10.80
2023-03-26T20:59:32.835Z,10.60
2023-03-26T21:02:01.293Z,10.70
2023-03-26T21:04:29.676Z,10.70
2023-03-26T21:07:07.129Z,10.20
2023-03-26T21:09:42.317Z,10.80
2023-03-26T21:12:20.641Z,10.20
2023-03-26T21:17:28.041Z,9.60
2023-03-26T21:19:56.404Z,10.20
2023-03-26T21:22:39.659Z,8.70
2023-03-26T21:25:17.534Z,9.00
2023-03-26T21:28:13.652Z,9.90
2023-03-26T21:30:43.985Z,9.90
2023-03-26T21:33:13.867Z,10.60
2023-03-26T21:35:42.540Z,10.30
2023-03-26T21:38:11.370Z,10.10
2023-03-26T21:40:46.976Z,11.60
2023-03-26T21:43:22.376Z,11.20
2023-03-26T21:45:53.593Z,10.70
2023-03-26T21:48:23.590Z,11.00
2023-03-26T21:50:52.320Z,10.00
2023-03-26T21:53:22.378Z,10.30
2023-03-26T21:55:50.809Z,9.80
2023-03-26T21:58:27.140Z,9.30
2023-03-26T22:01:18.824Z,8.90
2023-03-26T22:03:53.231Z,9.40
2023-03-26T22:06:31.318Z,9.80
2023-03-26T22:09:00.424Z,9.80
2023-03-26T22:11:28.592Z,9.80
2023-03-26T22:14:01.649Z,9.90
2023-03-26T22:16:30.766Z,8.80
2023-03-26T22:18:58.965Z,9.20
2023-03-26T22:21:27.831Z,8.60
2023-03-26T22:23:55.921Z,9.40
2023-03-26T22:26:27.562Z,8.40
2023-03-26T22:28:57.081Z,9.20
2023-03-26T22:31:26.590Z,8.60
2023-03-26T22:33:55.154Z,9.50
2023-03-26T22:36:25.386Z,11.10
2023-03-26T22:38:54.468Z,8.80
2023-03-26T22:41:23.959Z,9.10
2023-03-26T22:43:55.356Z,8.50
2023-03-26T22:46:25.193Z,8.20
2023-03-26T22:48:54.791Z,8.30
2023-03-26T22:51:28.262Z,8.90
2023-03-26T22:53:57.493Z,8.50
2023-03-26T22:56:25.949Z,15.10
2023-03-26T22:58:54.726Z,10.80
2023-03-26T23:01:24.020Z,9.70
2023-03-26T23:03:52.173Z,9.60
2023-03-26T23:06:21.399Z,8.50
2023-03-26T23:08:50.182Z,8.60
2023-03-26T23:11:19.399Z,9.30
2023-03-26T23:13:48.042Z,9.30
2023-03-26T23:16:16.623Z,11.10
2023-03-26T23:18:46.693Z,9.50
2023-03-26T23:21:16.316Z,10.20
2023-03-26T23:23:44.483Z,9.40
2023-03-26T23:26:14.909Z,9.10
2023-03-26T23:28:43.368Z,10.70
2023-03-26T23:31:12.428Z,9.20
2023-03-26T23:33:46.035Z,9.30
2023-03-26T23:36:17.685Z,9.40
2023-03-26T23:38:47.733Z,8.70
2023-03-26T23:41:21.725Z,8.50
2023-03-26T23:43:56.677Z,8.40
2023-03-26T23:46:30.984Z,7.90
2023-03-26T23:49:02.486Z,8.40
2023-03-26T23:51:32.775Z,7.70
2023-03-26T23:54:01.657Z,8.60
2023-03-26T23:56:32.306Z,7.50
2023-03-26T23:59:00.883Z,7.30
